Time;durP1;ratioP1;P1;durP2;ratioP2;P2;SDS_P1;SDS_P2;PMS_P1;PMS_P2;Temp;Humidity;BMP_temperature;BMP_pressure;BME280_temperature;BME280_humidity;BME280_pressure;Samples;Min_cycle;Max_cycle;Signal;HPM_P1;HPM_P2
2024/01/16 00:01:18;;;;;;;7.20;3.00;;;-0.30;99.90;;;;;;5056061;28;20064;-63
2024/01/16 00:03:45;;;;;;;5.35;2.55;;;-0.40;99.90;;;;;;5074798;28;20109;-64
2024/01/16 00:06:13;;;;;;;6.57;2.55;;;-0.40;99.90;;;;;;5055528;28;20080;-64
2024/01/16 00:08:40;;;;;;;5.85;3.22;;;-0.50;99.90;;;;;;5074539;28;20557;-64
2024/01/16 00:11:07;;;;;;;4.90;2.40;;;0.10;99.90;;;;;;5074532;28;20370;-65
2024/01/16 00:13:34;;;;;;;8.30;2.70;;;-0.60;99.90;;;;;;5054724;28;20110;-64
2024/01/16 00:16:03;;;;;;;6.35;2.60;;;-0.60;99.90;;;;;;5056700;28;20052;-64
2024/01/16 00:18:30;;;;;;;9.45;2.35;;;-0.50;99.90;;;;;;5055673;28;20045;-65
2024/01/16 00:20:57;;;;;;;6.78;2.30;;;-0.30;99.90;;;;;;5067885;28;20080;-63
2024/01/16 00:23:25;;;;;;;6.28;2.35;;;-0.30;99.90;;;;;;5094327;28;20102;-63
2024/01/16 00:25:52;;;;;;;4.75;2.72;;;-0.30;99.90;;;;;;5074894;28;20044;-63
2024/01/16 00:28:20;;;;;;;5.18;2.30;;;-0.30;99.90;;;;;;5075759;28;20048;-64
2024/01/16 00:30:47;;;;;;;4.82;2.35;;;-0.40;99.90;;;;;;5075379;28;20083;-64
2024/01/16 00:33:13;;;;;;;5.03;2.40;;;-0.40;99.90;;;;;;5074346;28;20475;-63
2024/01/16 00:35:40;;;;;;;3.15;2.17;;;-0.50;99.90;;;;;;5075282;28;20491;-64
2024/01/16 00:38:07;;;;;;;4.20;2.83;;;-0.50;99.90;;;;;;5074234;28;20051;-64
2024/01/16 00:40:35;;;;;;;4.55;2.15;;;-0.60;99.90;;;;;;5075222;28;20522;-64
2024/01/16 00:43:02;;;;;;;2.95;2.05;;;-0.10;99.90;;;;;;5074422;28;20045;-63
2024/01/16 00:45:30;;;;;;;9.60;2.20;;;-0.30;99.90;;;;;;5075690;28;20083;-65
2024/01/16 00:47:57;;;;;;;4.03;1.98;;;-0.70;99.90;;;;;;5074111;28;20064;-64
2024/01/16 00:50:24;;;;;;;3.85;2.05;;;-0.80;99.90;;;;;;5075520;28;20090;-64
2024/01/16 00:52:51;;;;;;;5.80;2.38;;;-0.80;99.90;;;;;;5093973;28;20044;-64
2024/01/16 00:55:18;;;;;;;9.82;2.30;;;-0.70;99.90;;;;;;5075396;28;20441;-64
2024/01/16 00:57:46;;;;;;;3.53;2.10;;;-0.70;99.90;;;;;;5074411;28;20076;-64
2024/01/16 01:00:13;;;;;;;10.43;2.20;;;-0.60;99.90;;;;;;5075849;28;20471;-63
2024/01/16 01:02:40;;;;;;;6.68;2.33;;;-0.50;99.90;;;;;;5075459;28;20055;-64
2024/01/16 01:05:09;;;;;;;4.93;2.22;;;-0.50;99.90;;;;;;5093643;28;20071;-64
2024/01/16 01:07:35;;;;;;;5.18;1.90;;;-0.40;99.90;;;;;;5075371;28;20131;-65
2024/01/16 01:10:03;;;;;;;7.60;2.22;;;-0.40;99.90;;;;;;5073668;28;20105;-65
2024/01/16 01:12:30;;;;;;;6.38;2.53;;;-0.40;99.90;;;;;;5093960;28;20441;-64
2024/01/16 01:14:58;;;;;;;16.85;3.97;;;-0.40;99.90;;;;;;5074669;28;20040;-65
2024/01/16 01:17:25;;;;;;;4.28;2.20;;;-0.50;99.90;;;;;;5073189;28;20054;-64
2024/01/16 01:19:52;;;;;;;5.60;2.30;;;-0.50;99.90;;;;;;5088180;28;20080;-64
2024/01/16 01:22:19;;;;;;;11.23;2.50;;;-0.50;99.90;;;;;;5073530;28;20049;-65
2024/01/16 01:24:45;;;;;;;9.65;2.65;;;-0.50;99.90;;;;;;5054315;28;20549;-63
2024/01/16 01:27:12;;;;;;;10.20;2.88;;;-0.50;99.90;;;;;;5055196;28;20048;-63
2024/01/16 01:29:39;;;;;;;8.65;2.50;;;-0.20;99.90;;;;;;5072993;28;20056;-64
2024/01/16 01:32:07;;;;;;;5.45;2.28;;;-0.60;99.90;;;;;;5071838;28;20052;-64
2024/01/16 01:34:34;;;;;;;8.55;2.95;;;-0.60;99.90;;;;;;5052755;28;20489;-64
2024/01/16 01:37:01;;;;;;;9.02;3.45;;;-0.60;99.90;;;;;;5053870;28;20052;-64
2024/01/16 01:39:28;;;;;;;5.20;2.20;;;-0.60;99.90;;;;;;5053370;28;20132;-64
2024/01/16 01:41:56;;;;;;;4.85;3.13;;;-0.70;99.90;;;;;;5054618;28;20098;-64
2024/01/16 01:44:24;;;;;;;7.35;2.50;;;-0.60;99.90;;;;;;5053201;28;20048;-63
2024/01/16 01:46:52;;;;;;;3.63;2.30;;;-0.60;99.90;;;;;;5053048;28;20049;-64
2024/01/16 01:49:20;;;;;;;8.23;2.63;;;-0.60;99.90;;;;;;5054169;28;20107;-64
2024/01/16 01:51:47;;;;;;;4.55;2.50;;;-0.50;99.90;;;;;;5072280;28;20044;-64
2024/01/16 01:54:15;;;;;;;6.13;2.50;;;-0.50;99.90;;;;;;5054468;28;20056;-64
2024/01/16 01:56:44;;;;;;;4.80;2.30;;;-0.40;99.90;;;;;;5053897;28;20488;-64
2024/01/16 01:59:13;;;;;;;4.03;2.17;;;-0.40;99.90;;;;;;5069930;28;20041;-62
2024/01/16 02:01:42;;;;;;;3.15;2.22;;;-0.40;99.90;;;;;;5054628;28;20067;-63
2024/01/16 02:04:11;;;;;;;5.72;2.58;;;-0.40;99.90;;;;;;5053790;28;20542;-63
2024/01/16 02:06:39;;;;;;;3.15;2.10;;;-0.40;99.90;;;;;;5051460;28;20053;-63
2024/01/16 02:09:07;;;;;;;5.45;2.33;;;-0.50;99.90;;;;;;5054205;28;20056;-64
2024/01/16 02:11:34;;;;;;;2.85;2.17;;;-0.50;99.90;;;;;;5053648;28;20055;-64
2024/01/16 02:14:02;;;;;;;5.45;2.78;;;-0.50;99.90;;;;;;5071891;28;20051;-65
2024/01/16 02:16:37;;;;;;;11.93;2.60;;;-0.60;99.90;;;;;;5053788;28;20504;-64
2024/01/16 02:19:04;;;;;;;4.68;2.03;;;-0.60;99.90;;;;;;5053696;28;20083;-64
2024/01/16 02:21:35;;;;;;;9.65;2.67;;;-0.60;99.90;;;;;;5053482;28;20048;-62
2024/01/16 02:24:04;;;;;;;5.13;2.20;;;-0.70;99.90;;;;;;5053394;28;20048;-63
2024/01/16 02:26:31;;;;;;;3.50;2.28;;;-0.70;99.90;;;;;;5054445;28;20056;-63
2024/01/16 02:28:58;;;;;;;4.93;2.20;;;-0.40;99.90;;;;;;5053888;28;20045;-63
2024/01/16 02:31:25;;;;;;;8.02;2.60;;;-0.80;99.90;;;;;;5053072;28;20048;-64
2024/01/16 02:33:52;;;;;;;5.25;2.40;;;-0.80;99.90;;;;;;5053824;28;20044;-64
2024/01/16 02:36:19;;;;;;;9.70;3.28;;;-0.80;99.90;;;;;;5072644;28;20395;-64
2024/01/16 02:38:46;;;;;;;8.27;2.60;;;-0.80;99.90;;;;;;5054764;28;20056;-63
2024/01/16 02:41:16;;;;;;;4.60;2.40;;;-0.80;99.90;;;;;;5052733;28;20045;-64
2024/01/16 02:43:43;;;;;;;9.60;2.70;;;-0.80;99.90;;;;;;5051934;28;20072;-64
2024/01/16 02:46:10;;;;;;;7.00;2.45;;;0.40;99.90;;;;;;5054075;28;20447;-64
2024/01/16 02:48:38;;;;;;;6.72;2.35;;;-0.80;99.90;;;;;;5052814;28;20060;-64
2024/01/16 02:51:05;;;;;;;3.92;2.20;;;-0.80;99.90;;;;;;5054426;28;20049;-63
2024/01/16 02:53:32;;;;;;;4.20;2.30;;;-0.80;99.90;;;;;;5053506;28;20099;-63
2024/01/16 02:55:59;;;;;;;3.25;2.20;;;-0.90;99.90;;;;;;5050028;28;20052;-64
2024/01/16 02:58:28;;;;;;;3.13;2.10;;;-1.00;99.90;;;;;;5054388;28;20051;-64
2024/01/16 03:00:55;;;;;;;6.45;2.63;;;-1.00;99.90;;;;;;5053373;28;20044;-64
2024/01/16 03:03:22;;;;;;;6.97;2.42;;;-1.00;99.90;;;;;;5051893;28;20048;-64
2024/01/16 03:05:49;;;;;;;6.25;2.72;;;-1.10;99.90;;;;;;5053343;28;20057;-64
2024/01/16 03:08:16;;;;;;;3.13;2.30;;;-1.00;99.90;;;;;;5072290;28;20045;-64
2024/01/16 03:10:43;;;;;;;6.13;2.67;;;-1.20;99.90;;;;;;5054001;28;20443;-64
2024/01/16 03:13:10;;;;;;;7.18;2.28;;;-1.20;99.90;;;;;;5052984;28;20045;-64
2024/01/16 03:15:38;;;;;;;6.30;2.47;;;-1.20;99.90;;;;;;5053484;28;20095;-64
2024/01/16 03:18:05;;;;;;;5.80;2.63;;;-1.20;99.90;;;;;;5072318;28;20090;-64
2024/01/16 03:20:32;;;;;;;5.25;2.33;;;-1.20;99.90;;;;;;5071567;28;20098;-64
2024/01/16 03:22:59;;;;;;;6.30;2.50;;;-1.30;99.90;;;;;;5071183;28;20040;-64
2024/01/16 03:25:26;;;;;;;7.43;2.80;;;-1.30;99.90;;;;;;5049498;28;20041;-64
2024/01/16 03:27:53;;;;;;;5.65;2.88;;;-1.00;99.90;;;;;;5053083;28;20058;-64
2024/01/16 03:30:20;;;;;;;5.13;2.45;;;-1.30;99.90;;;;;;5049045;28;20053;-64
2024/01/16 03:32:48;;;;;;;8.98;3.00;;;-1.30;99.90;;;;;;5071497;28;20045;-64
2024/01/16 03:35:15;;;;;;;9.70;3.13;;;-1.30;99.90;;;;;;5051558;28;20334;-64
2024/01/16 03:37:42;;;;;;;5.05;2.80;;;-1.30;99.90;;;;;;5070947;28;20736;-64
2024/01/16 03:40:11;;;;;;;5.60;3.05;;;-1.30;99.90;;;;;;5052250;28;20404;-64
2024/01/16 03:42:38;;;;;;;7.00;2.88;;;-1.30;99.90;;;;;;5051774;28;20152;-64
2024/01/16 03:45:07;;;;;;;10.15;3.10;;;-1.30;99.90;;;;;;5052286;28;20086;-64
2024/01/16 03:47:34;;;;;;;6.22;2.63;;;-1.30;99.90;;;;;;5052128;28;20400;-64
2024/01/16 03:50:02;;;;;;;6.85;2.85;;;-1.20;99.90;;;;;;5053201;28;20063;-65
2024/01/16 03:52:30;;;;;;;9.35;2.88;;;-1.20;99.90;;;;;;5053164;28;20098;-64
2024/01/16 03:54:56;;;;;;;5.40;3.28;;;-1.20;99.90;;;;;;5053579;28;20475;-64
2024/01/16 03:57:24;;;;;;;9.63;3.55;;;-1.20;99.90;;;;;;5055879;28;20049;-64
2024/01/16 03:59:51;;;;;;;6.05;2.60;;;-1.20;99.90;;;;;;5053081;28;20048;-64
2024/01/16 04:02:18;;;;;;;8.32;3.28;;;-1.10;99.90;;;;;;5056073;28;20110;-65
2024/01/16 04:04:45;;;;;;;5.03;2.60;;;-1.10;99.90;;;;;;5054671;28;20045;-65
2024/01/16 04:07:13;;;;;;;6.30;3.00;;;-1.10;99.90;;;;;;5056422;28;20056;-64
2024/01/16 04:09:40;;;;;;;8.70;2.83;;;-1.10;99.90;;;;;;5055846;28;20522;-65
2024/01/16 04:12:08;;;;;;;5.95;2.70;;;-1.10;99.90;;;;;;5053721;28;20511;-67
2024/01/16 04:14:36;;;;;;;7.57;2.75;;;-1.10;99.90;;;;;;5055951;28;20051;-64
2024/01/16 04:17:03;;;;;;;6.30;2.97;;;-1.00;99.90;;;;;;5055410;28;20076;-64
2024/01/16 04:19:33;;;;;;;8.43;2.38;;;-1.00;99.90;;;;;;5055841;28;20174;-64
2024/01/16 04:22:00;;;;;;;6.70;2.75;;;-1.00;99.90;;;;;;5055796;28;20503;-64
2024/01/16 04:24:29;;;;;;;12.05;3.45;;;-0.90;99.90;;;;;;5055406;28;20103;-64
2024/01/16 04:26:55;;;;;;;7.93;3.13;;;-0.90;99.90;;;;;;5057082;28;20048;-64
2024/01/16 04:29:22;;;;;;;6.00;2.85;;;-0.90;99.90;;;;;;5055211;28;20049;-64
2024/01/16 04:31:50;;;;;;;7.57;2.70;;;-0.90;99.90;;;;;;5072063;28;20051;-64
2024/01/16 04:34:16;;;;;;;9.27;3.42;;;-0.90;99.90;;;;;;5045692;28;20140;-65
2024/01/16 04:36:43;;;;;;;8.82;3.42;;;-0.80;99.90;;;;;;5051364;28;20049;-64
2024/01/16 04:39:10;;;;;;;8.27;2.55;;;-0.80;99.90;;;;;;5053970;28;20103;-64
2024/01/16 04:41:38;;;;;;;5.93;3.40;;;-0.70;99.90;;;;;;5049713;28;20049;-64
2024/01/16 04:44:05;;;;;;;6.55;2.88;;;-0.70;99.90;;;;;;5073594;28;20106;-64
2024/01/16 04:46:32;;;;;;;6.22;2.70;;;-0.70;99.90;;;;;;5052995;28;20049;-63
2024/01/16 04:48:59;;;;;;;7.78;2.50;;;-0.70;99.90;;;;;;5055015;28;20503;-63
2024/01/16 04:51:26;;;;;;;6.55;2.97;;;-0.70;99.90;;;;;;5052309;28;20464;-64
2024/01/16 04:53:53;;;;;;;4.00;2.70;;;-0.70;99.90;;;;;;5053872;28;20060;-63
2024/01/16 04:56:20;;;;;;;20.30;3.17;;;-0.70;99.90;;;;;;5054312;28;20091;-63
2024/01/16 04:58:49;;;;;;;9.82;2.83;;;-0.70;99.90;;;;;;5053653;28;20056;-63
2024/01/16 05:01:16;;;;;;;8.65;2.85;;;-0.60;99.90;;;;;;5054524;28;20056;-63
2024/01/16 05:03:43;;;;;;;11.75;3.22;;;-0.60;99.90;;;;;;5055467;28;20097;-63
2024/01/16 05:06:14;;;;;;;5.80;2.42;;;-0.50;99.90;;;;;;5053862;28;20114;-63
2024/01/16 05:08:41;;;;;;;5.72;2.97;;;-0.50;99.90;;;;;;5051753;28;20041;-64
2024/01/16 05:11:08;;;;;;;7.70;2.95;;;-0.40;99.90;;;;;;5054848;28;20502;-63
2024/01/16 05:13:35;;;;;;;8.57;2.70;;;-0.40;99.90;;;;;;5052956;28;20053;-62
2024/01/16 05:16:04;;;;;;;6.65;2.50;;;-0.40;99.90;;;;;;5053741;28;20049;-63
2024/01/16 05:18:32;;;;;;;7.38;2.40;;;-0.40;99.90;;;;;;5054971;28;20442;-63
2024/01/16 05:20:59;;;;;;;7.30;2.70;;;-0.40;99.90;;;;;;5066464;28;20059;-63
2024/01/16 05:23:26;;;;;;;4.80;2.30;;;-0.30;99.90;;;;;;5073036;28;20048;-63
2024/01/16 05:25:53;;;;;;;5.65;2.50;;;-0.30;99.90;;;;;;5092912;28;20047;-63
2024/01/16 05:28:20;;;;;;;8.18;2.92;;;-0.20;99.90;;;;;;5092781;28;20043;-64
2024/01/16 05:30:46;;;;;;;6.75;3.05;;;-0.30;99.90;;;;;;5073928;28;20052;-63
2024/01/16 05:33:15;;;;;;;11.32;2.88;;;-0.20;99.90;;;;;;5092629;28;20047;-64
2024/01/16 05:35:42;;;;;;;6.00;2.70;;;-0.20;99.90;;;;;;5074069;28;20048;-63
2024/01/16 05:38:12;;;;;;;10.52;3.15;;;-0.30;99.90;;;;;;5064867;28;20060;-63
2024/01/16 05:40:39;;;;;;;9.25;2.65;;;-0.20;99.90;;;;;;5074373;28;20496;-63
2024/01/16 05:43:06;;;;;;;8.23;2.75;;;-0.20;99.90;;;;;;5072118;28;20045;-64
2024/01/16 05:45:32;;;;;;;11.85;2.72;;;-0.20;99.90;;;;;;5074348;28;20044;-64
2024/01/16 05:47:59;;;;;;;9.50;3.20;;;-0.10;99.90;;;;;;5073024;28;20464;-63
2024/01/16 05:50:28;;;;;;;5.65;2.75;;;-0.10;99.90;;;;;;5092154;28;20051;-63
2024/01/16 05:52:54;;;;;;;9.85;3.40;;;-0.10;99.90;;;;;;5092209;28;20044;-63
2024/01/16 05:55:22;;;;;;;6.50;2.70;;;-0.10;99.90;;;;;;5090292;28;20048;-63
2024/01/16 05:57:49;;;;;;;7.43;2.95;;;-0.10;99.90;;;;;;5072830;28;20103;-63
2024/01/16 06:00:17;;;;;;;11.00;3.10;;;-0.10;99.90;;;;;;5069808;28;20496;-63
2024/01/16 06:02:44;;;;;;;7.13;2.80;;;-0.10;99.90;;;;;;5071661;28;20621;-63
2024/01/16 06:05:11;;;;;;;10.38;2.97;;;0.10;99.90;;;;;;5071857;28;20066;-63
2024/01/16 06:07:40;;;;;;;9.15;3.55;;;-0.10;99.90;;;;;;5073751;28;20502;-63
2024/01/16 06:10:09;;;;;;;7.53;3.00;;;-0.20;99.90;;;;;;5070266;28;20098;-63
2024/01/16 06:12:37;;;;;;;6.25;2.83;;;-0.20;99.90;;;;;;5088634;28;20055;-63
2024/01/16 06:15:04;;;;;;;5.75;2.70;;;-0.30;99.90;;;;;;5072179;28;20052;-64
2024/01/16 06:17:31;;;;;;;8.93;2.88;;;-0.30;99.90;;;;;;5069955;28;20044;-63
2024/01/16 06:19:59;;;;;;;11.73;3.13;;;-0.30;99.90;;;;;;5082631;28;20080;-62
2024/01/16 06:22:25;;;;;;;8.25;2.70;;;-0.40;99.90;;;;;;5067263;28;20045;-63
2024/01/16 06:24:54;;;;;;;9.15;2.50;;;-0.40;99.90;;;;;;5047475;28;20099;-63
2024/01/16 06:27:20;;;;;;;8.27;3.03;;;-0.40;99.90;;;;;;5049969;28;20106;-63
2024/01/16 06:29:48;;;;;;;7.28;2.35;;;-0.40;99.90;;;;;;5066599;28;20056;-63
2024/01/16 06:32:15;;;;;;;6.80;3.03;;;-0.40;99.90;;;;;;5071134;28;20041;-63
2024/01/16 06:34:42;;;;;;;6.30;2.70;;;-0.40;99.90;;;;;;5050846;28;20446;-63
2024/01/16 06:37:09;;;;;;;9.13;2.90;;;-0.40;99.90;;;;;;5053340;28;20110;-63
2024/01/16 06:39:37;;;;;;;5.28;2.55;;;-0.40;99.90;;;;;;5070842;28;20052;-63
2024/01/16 06:42:06;;;;;;;6.25;2.72;;;-0.40;99.90;;;;;;5053017;28;20052;-62
2024/01/16 06:44:33;;;;;;;12.52;2.53;;;-0.40;99.90;;;;;;5053702;28;20408;-62
2024/01/16 06:47:00;;;;;;;8.77;2.47;;;-1.30;99.90;;;;;;5052611;28;20059;-62
2024/01/16 06:49:27;;;;;;;8.23;2.60;;;-0.50;99.90;;;;;;5053182;28;20102;-62
2024/01/16 06:51:53;;;;;;;5.93;2.38;;;-0.40;99.90;;;;;;5052175;28;20056;-63
2024/01/16 06:54:23;;;;;;;5.75;2.40;;;-0.50;99.90;;;;;;5052980;28;20761;-63
2024/01/16 06:56:50;;;;;;;8.85;2.70;;;-0.50;99.90;;;;;;5071838;28;20086;-63
2024/01/16 06:59:21;;;;;;;9.65;2.65;;;-0.50;99.90;;;;;;5051682;28;20044;-64
2024/01/16 07:01:48;;;;;;;4.82;2.35;;;-0.50;99.90;;;;;;5053471;28;20051;-63
2024/01/16 07:04:15;;;;;;;11.43;3.08;;;-0.50;99.90;;;;;;5053978;28;20503;-63
2024/01/16 07:06:43;;;;;;;12.48;2.70;;;-0.50;99.90;;;;;;5054067;28;20041;-62
2024/01/16 07:09:10;;;;;;;9.07;3.97;;;-0.50;99.90;;;;;;5053344;28;20095;-63
2024/01/16 07:11:38;;;;;;;8.27;3.17;;;-0.50;99.90;;;;;;5049421;28;20061;-64
2024/01/16 07:14:07;;;;;;;9.05;3.00;;;-0.60;99.90;;;;;;5065520;28;20541;-63
2024/01/16 07:16:36;;;;;;;4.80;2.50;;;-0.60;99.90;;;;;;5070455;28;20071;-63
2024/01/16 07:19:03;;;;;;;11.02;3.53;;;-0.60;99.90;;;;;;5052746;28;20059;-64
2024/01/16 07:21:30;;;;;;;9.10;3.10;;;-0.60;99.90;;;;;;5070759;28;20052;-64
2024/01/16 07:23:57;;;;;;;12.25;2.78;;;-0.60;99.90;;;;;;5073733;28;20040;-63
2024/01/16 07:26:24;;;;;;;6.65;2.47;;;-0.60;99.90;;;;;;5073963;28;20130;-64
2024/01/16 07:28:51;;;;;;;6.07;2.50;;;-0.70;99.90;;;;;;5091208;28;20544;-64
2024/01/16 07:31:18;;;;;;;6.68;2.70;;;-0.70;99.90;;;;;;5075938;28;20457;-65
2024/01/16 07:33:46;;;;;;;7.95;2.72;;;-0.70;99.90;;;;;;5095516;28;20479;-64
2024/01/16 07:36:14;;;;;;;7.15;2.80;;;-0.70;99.90;;;;;;5075356;28;20053;-64
2024/01/16 07:38:41;;;;;;;6.95;2.50;;;-0.70;99.90;;;;;;5077440;28;20052;-64
2024/01/16 07:41:08;;;;;;;8.35;2.65;;;-0.70;99.90;;;;;;5077101;28;20097;-64
2024/01/16 07:43:35;;;;;;;5.53;2.45;;;-0.60;99.90;;;;;;5076758;28;20051;-64
2024/01/16 07:46:02;;;;;;;9.50;3.10;;;-0.60;99.90;;;;;;5095147;28;20052;-64
2024/01/16 07:48:29;;;;;;;13.40;3.05;;;-0.60;99.90;;;;;;5077095;28;20164;-64
2024/01/16 07:50:57;;;;;;;7.18;2.58;;;-0.60;99.90;;;;;;5076113;28;20048;-64
2024/01/16 07:53:27;;;;;;;4.43;2.60;;;-0.70;99.90;;;;;;5076572;28;20060;-64
2024/01/16 07:55:55;;;;;;;5.43;2.50;;;-0.60;99.90;;;;;;5076712;28;20040;-64
2024/01/16 07:58:22;;;;;;;8.00;2.92;;;-0.60;99.90;;;;;;5076284;28;20082;-63
2024/01/16 08:00:49;;;;;;;9.20;2.95;;;-0.60;99.90;;;;;;5077036;28;20059;-63
2024/01/16 08:03:16;;;;;;;5.95;2.30;;;-0.50;99.90;;;;;;5077034;28;20052;-64
2024/01/16 08:05:43;;;;;;;8.50;2.50;;;-0.50;99.90;;;;;;5094274;28;20445;-64
2024/01/16 08:08:11;;;;;;;5.72;2.33;;;-0.40;99.90;;;;;;5077068;28;20055;-64
2024/01/16 08:10:38;;;;;;;3.38;2.55;;;-0.40;99.90;;;;;;5077071;28;20062;-64
2024/01/16 08:13:05;;;;;;;6.43;2.75;;;-0.30;99.90;;;;;;5076716;28;20498;-64
2024/01/16 08:15:34;;;;;;;4.03;2.28;;;-0.30;99.90;;;;;;5094687;28;20051;-64
2024/01/16 08:18:01;;;;;;;5.07;2.25;;;-0.20;99.90;;;;;;5076230;28;20052;-64
2024/01/16 08:20:28;;;;;;;5.72;2.20;;;-0.10;99.90;;;;;;5076458;28;20518;-64
2024/01/16 08:22:55;;;;;;;6.93;2.45;;;0.10;99.90;;;;;;5076399;28;20043;-64
2024/01/16 08:25:23;;;;;;;4.60;2.40;;;0.40;99.90;;;;;;5076147;28;20066;-64
2024/01/16 08:27:50;;;;;;;6.28;2.10;;;0.80;99.90;;;;;;5092754;28;20398;-64
2024/01/16 08:30:17;;;;;;;7.22;2.50;;;1.00;99.90;;;;;;5076009;28;20380;-64
2024/01/16 08:32:44;;;;;;;8.57;2.38;;;1.40;99.90;;;;;;5076058;28;20059;-64
2024/01/16 08:35:11;;;;;;;4.43;2.28;;;1.80;99.90;;;;;;5076259;28;20044;-64
2024/01/16 08:37:38;;;;;;;5.18;2.45;;;2.10;99.90;;;;;;5094580;28;20048;-65
2024/01/16 08:40:06;;;;;;;9.25;2.50;;;2.20;99.90;;;;;;5093775;28;20098;-63
2024/01/16 08:42:34;;;;;;;6.70;2.45;;;2.30;99.90;;;;;;5094348;28;20352;-63
2024/01/16 08:45:01;;;;;;;7.10;2.33;;;2.30;99.90;;;;;;5094225;28;20090;-64
2024/01/16 08:47:28;;;;;;;9.63;2.60;;;2.20;99.90;;;;;;5075833;28;20148;-64
2024/01/16 08:49:55;;;;;;;6.53;2.00;;;2.00;99.90;;;;;;5075219;28;20488;-64
2024/01/16 08:52:22;;;;;;;3.45;2.20;;;1.80;99.90;;;;;;5074491;28;20056;-64
2024/01/16 08:54:49;;;;;;;6.57;2.05;;;1.70;99.90;;;;;;5074861;28;20048;-63
2024/01/16 08:57:16;;;;;;;7.80;2.17;;;1.90;99.90;;;;;;5074158;28;20400;-63
2024/01/16 08:59:44;;;;;;;3.45;1.92;;;2.20;99.90;;;;;;5075266;28;20060;-63
2024/01/16 09:02:12;;;;;;;4.68;2.28;;;2.30;99.90;;;;;;5074162;28;20518;-64
2024/01/16 09:04:39;;;;;;;5.00;2.65;;;2.00;99.90;;;;;;5073368;28;20079;-64
2024/01/16 09:07:05;;;;;;;4.35;1.83;;;1.90;99.90;;;;;;5074461;28;20036;-63
2024/01/16 09:09:32;;;;;;;5.07;2.17;;;1.90;99.90;;;;;;5074024;28;20114;-64
2024/01/16 09:11:59;;;;;;;4.22;2.10;;;2.00;99.90;;;;;;5075013;28;20056;-64
2024/01/16 09:14:26;;;;;;;4.22;2.10;;;1.50;99.90;;;;;;5073728;28;20059;-63
2024/01/16 09:16:55;;;;;;;3.55;2.05;;;1.40;99.90;;;;;;5075303;28;20040;-63
2024/01/16 09:19:22;;;;;;;6.30;2.50;;;1.40;99.90;;;;;;5074395;28;20040;-64
2024/01/16 09:21:49;;;;;;;4.40;1.98;;;1.30;99.90;;;;;;5072852;28;20161;-64
2024/01/16 09:24:15;;;;;;;3.90;2.35;;;1.20;99.90;;;;;;5093367;28;20051;-64
2024/01/16 09:26:43;;;;;;;7.10;2.75;;;1.30;99.90;;;;;;5074327;28;20484;-65
2024/01/16 09:29:10;;;;;;;5.80;2.10;;;1.30;99.90;;;;;;5074687;28;20402;-64
2024/01/16 09:31:37;;;;;;;4.43;1.90;;;1.20;99.90;;;;;;5074061;28;20561;-64
2024/01/16 09:34:06;;;;;;;6.32;2.30;;;1.50;99.90;;;;;;5073117;28;20052;-64
2024/01/16 09:36:35;;;;;;;6.50;2.00;;;1.30;99.90;;;;;;5073820;28;20565;-64
2024/01/16 09:39:02;;;;;;;5.53;2.40;;;1.40;99.90;;;;;;5093353;28;20054;-64
2024/01/16 09:41:32;;;;;;;3.95;2.47;;;1.50;99.90;;;;;;5075243;28;20051;-64
2024/01/16 09:43:59;;;;;;;6.18;3.08;;;1.70;99.90;;;;;;5074369;28;20052;-64
2024/01/16 09:46:27;;;;;;;10.18;2.97;;;1.80;99.90;;;;;;5074897;28;20078;-64
2024/01/16 09:48:56;;;;;;;6.53;2.30;;;2.00;99.90;;;;;;5070677;28;20053;-64
2024/01/16 09:51:24;;;;;;;7.63;2.10;;;1.90;99.90;;;;;;5091804;28;20495;-64
2024/01/16 09:53:52;;;;;;;4.55;2.20;;;2.10;99.90;;;;;;5073752;28;20045;-64
2024/01/16 09:56:24;;;;;;;3.58;2.00;;;2.20;99.90;;;;;;5071888;28;20148;-64
2024/01/16 09:58:55;;;;;;;8.65;2.80;;;2.30;99.90;;;;;;5074477;28;20048;-64
2024/01/16 10:01:24;;;;;;;4.40;2.03;;;2.30;99.90;;;;;;5074162;28;20659;-63
2024/01/16 10:03:51;;;;;;;4.13;1.90;;;2.10;99.90;;;;;;5072953;28;20052;-64
2024/01/16 10:06:20;;;;;;;6.47;2.33;;;2.20;99.90;;;;;;5074668;28;20501;-65
2024/01/16 10:08:49;;;;;;;4.97;2.55;;;1.90;99.90;;;;;;5074208;28;20393;-63
2024/01/16 10:11:16;;;;;;;4.35;1.90;;;2.10;99.90;;;;;;5091882;28;20124;-63
2024/01/16 10:13:45;;;;;;;6.10;1.98;;;2.00;99.90;;;;;;5074861;28;20453;-64
2024/01/16 10:16:11;;;;;;;4.15;1.90;;;1.80;99.90;;;;;;5074357;28;20105;-64
2024/01/16 10:18:38;;;;;;;5.22;2.10;;;1.70;99.90;;;;;;5074119;28;20047;-64
2024/01/16 10:21:07;;;;;;;4.35;2.10;;;1.60;99.90;;;;;;5074046;28;21068;-63
2024/01/16 10:23:34;;;;;;;4.13;1.73;;;1.60;99.90;;;;;;5074420;28;20048;-64
2024/01/16 10:26:09;;;;;;;4.95;1.90;;;1.60;99.90;;;;;;5091784;28;20040;-64
2024/01/16 10:28:37;;;;;;;2.88;1.80;;;1.70;99.90;;;;;;5072617;28;20052;-63
2024/01/16 10:31:05;;;;;;;3.03;1.90;;;1.70;99.90;;;;;;5073951;28;20052;-63
2024/01/16 10:33:32;;;;;;;3.20;1.88;;;1.60;99.90;;;;;;5072900;28;20049;-63
2024/01/16 10:36:10;;;;;;;4.38;2.00;;;1.50;99.90;;;;;;5071882;28;20044;-63
2024/01/16 10:38:38;;;;;;;4.50;2.05;;;1.60;99.90;;;;;;5071195;28;20052;-63
2024/01/16 10:41:14;;;;;;;4.05;2.22;;;1.50;99.90;;;;;;5071942;28;20094;-64
2024/01/16 10:43:42;;;;;;;7.22;2.60;;;1.60;99.90;;;;;;5074839;28;20395;-64
2024/01/16 10:46:13;;;;;;;4.35;2.30;;;1.50;99.90;;;;;;5073468;28;20503;-64
2024/01/16 10:48:42;;;;;;;4.80;2.30;;;1.50;99.90;;;;;;5074369;28;20052;-63
2024/01/16 10:51:12;;;;;;;4.32;2.20;;;1.50;99.90;;;;;;5074292;28;20048;-64
2024/01/16 10:53:43;;;;;;;3.47;1.92;;;1.50;99.90;;;;;;5069879;28;20484;-63
2024/01/16 10:56:13;;;;;;;7.45;3.15;;;1.60;99.90;;;;;;5073859;28;20377;-64
2024/01/16 10:58:42;;;;;;;3.42;2.17;;;1.50;99.90;;;;;;5073374;28;20049;-63
2024/01/16 11:01:12;;;;;;;4.47;2.22;;;1.70;99.90;;;;;;5091438;28;20074;-64
2024/01/16 11:03:44;;;;;;;5.93;2.27;;;1.70;99.90;;;;;;5073266;28;20443;-63
2024/01/16 11:06:13;;;;;;;3.13;2.30;;;1.80;99.90;;;;;;5076000;28;20499;-63
2024/01/16 11:08:41;;;;;;;4.18;2.25;;;1.80;99.90;;;;;;5077096;28;20444;-62
2024/01/16 11:11:08;;;;;;;4.35;2.33;;;1.80;99.90;;;;;;5076470;28;20484;-63
2024/01/16 11:13:37;;;;;;;4.30;2.67;;;1.90;99.90;;;;;;5077209;28;20051;-63
2024/01/16 11:16:06;;;;;;;4.50;2.65;;;1.90;99.90;;;;;;5076853;28;20511;-64
2024/01/16 11:18:35;;;;;;;5.50;3.33;;;2.00;99.90;;;;;;5095998;28;20048;-63
2024/01/16 11:21:05;;;;;;;7.38;2.92;;;2.00;99.90;;;;;;5069659;28;20057;-63
2024/01/16 11:23:34;;;;;;;4.45;2.70;;;2.10;99.90;;;;;;5074458;28;20431;-63
2024/01/16 11:26:22;;;;;;;3.25;2.58;;;2.10;99.90;;;;;;5073151;28;20047;-63
2024/01/16 11:28:51;;;;;;;4.72;2.25;;;2.00;99.90;;;;;;5073273;28;20049;-63
2024/01/16 11:31:30;;;;;;;3.67;2.58;;;2.00;99.90;;;;;;5071687;28;20053;-63
2024/01/16 11:33:57;;;;;;;2.47;2.10;;;2.10;99.90;;;;;;5072591;28;20045;-63
2024/01/16 11:36:55;;;;;;;4.25;2.30;;;1.90;99.90;;;;;;5073165;28;20380;-63
2024/01/16 11:39:24;;;;;;;3.15;2.20;;;1.90;99.90;;;;;;5072974;28;20049;-63
2024/01/16 11:41:53;;;;;;;3.15;2.10;;;2.10;99.90;;;;;;5074781;28;20407;-64
2024/01/16 11:44:46;;;;;;;4.13;2.20;;;2.00;99.90;;;;;;5075159;28;20786;-64
2024/01/16 11:47:18;;;;;;;2.63;2.30;;;2.00;99.90;;;;;;5073345;28;20048;-65
2024/01/16 11:49:45;;;;;;;4.70;2.92;;;1.80;99.90;;;;;;5072633;28;20411;-64
2024/01/16 11:52:13;;;;;;;4.03;2.10;;;1.70;99.90;;;;;;5075095;28;20072;-64
2024/01/16 11:54:40;;;;;;;3.08;2.00;;;1.80;99.90;;;;;;5073556;28;20056;-63
2024/01/16 11:57:49;;;;;;;3.35;2.20;;;1.60;99.90;;;;;;5074249;28;20049;-63
2024/01/16 12:00:29;;;;;;;3.42;2.53;;;1.60;99.90;;;;;;5013179;28;20430;-63
2024/01/16 12:02:57;;;;;;;3.55;2.50;;;1.60;99.90;;;;;;5069593;28;20056;-63
2024/01/16 12:05:24;;;;;;;3.35;2.50;;;1.60;99.90;;;;;;5072288;28;20595;-63
2024/01/16 12:07:53;;;;;;;4.15;2.50;;;1.60;99.90;;;;;;5073204;28;20040;-64
2024/01/16 12:10:21;;;;;;;4.65;2.50;;;1.60;99.90;;;;;;5072238;28;20084;-63
2024/01/16 12:12:50;;;;;;;6.40;2.80;;;1.60;99.90;;;;;;5072661;28;20040;-64
2024/01/16 12:15:19;;;;;;;4.35;2.67;;;1.60;99.90;;;;;;5074014;28;20098;-64
2024/01/16 12:17:58;;;;;;;5.55;2.47;;;1.50;99.90;;;;;;5071514;28;20053;-64
2024/01/16 12:20:27;;;;;;;7.03;2.63;;;1.60;99.90;;;;;;5072439;28;20064;-63
2024/01/16 12:22:59;;;;;;;6.07;2.40;;;2.20;99.90;;;;;;5074467;28;20040;-63
2024/01/16 12:25:28;;;;;;;5.90;2.60;;;1.30;99.90;;;;;;5071489;28;20049;-64
2024/01/16 12:28:00;;;;;;;3.13;2.30;;;1.30;99.90;;;;;;5072291;28;20377;-63
2024/01/16 12:30:28;;;;;;;4.03;2.90;;;1.40;99.90;;;;;;5074194;28;20514;-64
2024/01/16 12:33:06;;;;;;;6.28;2.47;;;1.40;99.90;;;;;;5072060;28;20060;-64
2024/01/16 12:35:35;;;;;;;5.70;2.90;;;1.60;99.90;;;;;;5074121;28;20401;-64
2024/01/16 12:38:04;;;;;;;4.93;2.63;;;1.90;99.90;;;;;;5071260;28;20045;-64
2024/01/16 12:40:31;;;;;;;4.32;2.80;;;2.20;99.90;;;;;;5071604;28;20435;-64
2024/01/16 12:42:58;;;;;;;6.53;2.80;;;2.40;99.90;;;;;;5072416;28;20049;-64
2024/01/16 12:45:25;;;;;;;6.25;3.47;;;2.60;99.90;;;;;;5071277;28;20061;-64
2024/01/16 12:47:53;;;;;;;4.07;3.03;;;2.50;99.90;;;;;;5068670;28;20049;-64
2024/01/16 12:50:22;;;;;;;5.75;2.95;;;2.50;99.90;;;;;;5074116;28;20068;-63
2024/01/16 12:52:51;;;;;;;9.23;3.25;;;2.40;99.90;;;;;;5071341;28;20052;-63
2024/01/16 12:55:19;;;;;;;4.05;2.78;;;2.40;99.90;;;;;;5068831;28;20102;-64